createdAt,value
2023-07-25T00:00:04.700Z,1005.59
2023-07-25T00:16:00.355Z,1005.35
2023-07-25T00:31:00.485Z,1005.46
2023-07-25T00:46:00.606Z,1005.76
2023-07-25T01:00:00.944Z,1005.46
2023-07-25T01:16:01.885Z,1005.12
2023-07-25T01:31:02.018Z,1004.88
2023-07-25T01:46:02.168Z,1004.58
2023-07-25T02:00:02.120Z,1004.74
2023-07-25T02:16:02.714Z,1004.68
2023-07-25T02:31:03.184Z,1004.47
2023-07-25T02:46:03.569Z,1004.54
2023-07-25T03:00:03.563Z,1004.41
2023-07-25T03:16:04.427Z,1004.07
2023-07-25T03:31:04.319Z,1004
2023-07-25T03:46:04.421Z,1004.1
2023-07-25T03:59:59.897Z,1003.46
2023-07-25T04:16:00.506Z,1003.56
2023-07-25T04:31:00.499Z,1003.66
2023-07-25T04:46:00.704Z,1003.15
2023-07-25T05:00:01.113Z,1002.54
2023-07-25T05:16:04.153Z,1002.98
2023-07-25T05:31:01.890Z,1003.86
2023-07-25T05:46:02.266Z,1005.12
2023-07-25T06:00:02.687Z,1002.48
2023-07-25T06:16:03.036Z,1004.1
2023-07-25T06:31:03.086Z,1002.75
2023-07-25T06:46:03.430Z,1003.93
2023-07-25T07:00:03.570Z,1003.8
2023-07-25T07:16:08.452Z,1003.59
2023-07-25T07:31:04.330Z,1003.56
2023-07-25T07:46:04.463Z,1003.46
2023-07-25T07:59:59.517Z,1003.19
2023-07-25T08:15:59.990Z,1002.92
2023-07-25T08:31:00.233Z,1002.71
2023-07-25T08:46:00.760Z,1002.44
2023-07-25T09:00:02.289Z,1002.51
2023-07-25T09:16:06.763Z,1002.68
2023-07-25T09:31:02.393Z,1002.44
2023-07-25T09:46:02.784Z,1002.95
2023-07-25T10:00:03.248Z,1002.98
2023-07-25T10:16:03.570Z,1002.78
2023-07-25T10:31:07.414Z,1002.92
2023-07-25T10:45:59.853Z,1002.58
2023-07-25T11:00:00.321Z,1002.07
2023-07-25T11:16:00.644Z,1002.27
2023-07-25T11:31:00.519Z,1002.41
2023-07-25T11:46:00.653Z,1002.21
2023-07-25T12:00:01.607Z,1002.1
2023-07-25T12:16:01.473Z,1001.97
2023-07-25T12:31:01.619Z,1001.7
2023-07-25T12:46:02.070Z,1001.56
2023-07-25T13:00:04.090Z,1001.49
2023-07-25T13:16:08.755Z,1001.36
2023-07-25T13:31:03.175Z,1001.09
2023-07-25T13:46:04.901Z,1001.09
2023-07-25T14:00:04.261Z,1001.02
2023-07-25T14:16:04.594Z,1000.82
2023-07-25T14:30:59.796Z,1000.85
2023-07-25T14:45:59.884Z,1000.61
2023-07-25T14:59:59.829Z,1000.04
2023-07-25T15:16:00.284Z,1001.29
2023-07-25T15:31:00.471Z,1001.46
2023-07-25T15:46:00.781Z,1001.46
2023-07-25T16:00:01.233Z,1001.39
2023-07-25T16:16:01.650Z,1001.76
2023-07-25T16:31:23.161Z,1002.31
2023-07-25T16:45:59.668Z,1002.48
2023-07-25T17:00:02.602Z,1002.51
2023-07-25T17:17:22.600Z,1002.81
2023-07-25T17:31:03.399Z,1002.85
2023-07-25T17:46:03.745Z,1003.39
2023-07-25T18:00:04.120Z,1003.36
2023-07-25T18:15:59.809Z,1003.83
2023-07-25T18:30:59.930Z,1004
2023-07-25T18:46:00.947Z,1004.81
2023-07-25T19:00:00.781Z,1004.74
2023-07-25T19:16:05.014Z,1004.81
2023-07-25T19:31:01.965Z,1004.71
2023-07-25T19:46:02.431Z,1005.08
2023-07-25T20:00:02.698Z,1005.19
2023-07-25T20:16:03.177Z,1005.56
2023-07-25T20:31:03.999Z,1005.42
2023-07-25T20:46:04.099Z,1005.63
2023-07-25T21:00:04.147Z,1005.56
2023-07-25T21:16:02.392Z,1005.79
2023-07-25T21:31:00.264Z,1005.69
2023-07-25T21:46:00.797Z,1005.52
2023-07-25T22:00:03.678Z,1005.29
2023-07-25T22:16:01.751Z,1005.63
2023-07-25T22:31:01.874Z,1005.83
2023-07-25T22:46:02.252Z,1005.42
2023-07-25T23:00:02.422Z,1005.49
2023-07-25T23:16:03.504Z,1005.49
2023-07-25T23:31:03.861Z,1005.12
2023-07-25T23:46:04.507Z,1005.22
2023-07-25T23:59:59.623Z,1005.39
